Flight Track Log - Related Links

Times and Time Zones

All times are in EDT time to prevent confusion due to time zone crossing. See the RPA3253 flight status page for this flight to view local times or setup timezone preferences in your user account.


Time Position Orientation Groundspeed Altitude Reporting Facility
EDT Latitude Longitude Course Direction KTS MPH feet Rate Location/Type
Thu 07:32:41 PM 42.7194 -73.8078 117° Southeast 159 183 1,300  Level Boston Center
Thu 07:33:54 PM 42.7164 -73.8700 266° West 238 274 3,900 2,571 Climbing Boston Center
Thu 07:34:00 PM 42.5182 -74.0528 171° South  Level Estimated
Thu 07:34:54 PM 42.7617 -73.9219 320° Northwest 237 273 7,000  Level Boston Center
Thu 07:35:00 PM 42.4411 -74.1360 180° South  Level Estimated
Thu 07:35:54 PM 42.7817 -73.9961 290° West 216 249 9,700  Level Boston Center
Thu 07:36:00 PM 42.3639 -74.2189 170° South  Level Estimated
Thu 07:36:54 PM 42.7842 -74.0978 272° West 226 260 12,400  Level Boston Center
Thu 07:37:00 PM 42.2867 -74.3017 169° South  Level Estimated
Thu 07:37:54 PM 42.7414 -74.1758 233° Southwest 238 274 13,800  Level Boston Center
Thu 07:38:00 PM 42.2412 -74.1836 117° Southeast  Level FlightAware Approximate
Thu 07:38:54 PM 42.6472 -74.1986 190° South 308 354 16,000  Level Boston Center
Thu 07:39:54 PM 42.5522 -74.1394 155° Southeast 335 386 17,800 1,900 Climbing Boston Center
Thu 07:40:54 PM 42.4678 -74.0811 153° Southeast 362 417 19,800 1,950 Climbing Boston Center
Thu 07:41:54 PM 42.3686 -74.0108 152° Southeast 378 435 21,700 1,800 Climbing Boston Center
Thu 07:42:54 PM 42.2675 -73.9467 155° Southeast 396 456 23,400 1,650 Climbing Boston Center
Thu 07:43:54 PM 42.1642 -73.8742 153° Southeast 407 468 25,000 1,550 Climbing Boston Center
Thu 07:44:54 PM 42.0589 -73.8019 153° Southeast 414 476 26,500 1,450 Climbing Boston Center
Thu 07:45:54 PM 41.9492 -73.7297 154° Southeast 426 490 27,900 1,240 Climbing Boston Center
Thu 07:46:55 PM 41.8369 -73.7050 171° South 420 483 29,000 1,000 Climbing Boston Center
Thu 07:47:54 PM 41.7261 -73.7197 186° South 404 465 29,900 1,109 Climbing Boston Center
Thu 07:48:54 PM 41.6114 -73.7394 187° South 409 471 31,200 1,465 Climbing Boston Center
Thu 07:50:01 PM 41.4931 -73.8150 206° Southwest 403 464 33,000 1,313 Climbing New York Center
Thu 07:51:02 PM 41.4036 -73.8883 212° Southwest 385 443 34,000 504 Climbing New York Center
Thu 07:52:00 PM 41.3142 -73.9669 213° Southwest 385 443 34,000 151 Level New York Center
Thu 07:53:01 PM 41.2139 -74.0506 212° Southwest 404 465 34,300 590 Climbing New York Center
Thu 07:54:02 PM 41.1200 -74.1314 213° Southwest 415 478 35,200 744 Climbing New York Center
Thu 07:55:02 PM 41.0328 -74.1983 210° Southwest 415 478 35,800 397 Climbing New York Center
Thu 07:56:03 PM 40.9344 -74.2786 212° Southwest 415 478 36,000 101 Climbing New York Center
Thu 07:57:01 PM 40.8406 -74.3589 213° Southwest 415 478 36,000  Level New York Center
Thu 07:58:02 PM 40.7583 -74.4503 220° Southwest 410 472 36,000  Level New York Center
Thu 07:59:02 PM 40.6922 -74.5644 233° Southwest 392 451 36,000  Level New York Center
Thu 08:00:01 PM 40.6242 -74.6756 231° Southwest 398 458 36,000  Level New York Center
Thu 08:01:02 PM 40.5536 -74.7861 230° Southwest 398 458 36,000  Level New York Center
Thu 08:02:02 PM 40.4792 -74.8936 228° Southwest 398 458 36,000  Level New York Center
Thu 08:03:03 PM 40.4003 -75.0008 226° Southwest 403 464 36,000  Level New York Center
Thu 08:04:01 PM 40.3233 -75.1103 227° Southwest 408 470 36,000  Level New York Center
Thu 08:05:02 PM 40.2486 -75.2172 228° Southwest 408 470 36,000  Level New York Center
Thu 08:06:00 PM 40.1736 -75.3264 228° Southwest 408 470 36,000  Level New York Center
Thu 08:07:02 PM 40.0964 -75.4328 227° Southwest 408 470 36,000  Level New York Center
Thu 08:08:00 PM 40.0192 -75.5386 226° Southwest 408 470 36,000  Level New York Center
Thu 08:09:01 PM 39.9419 -75.6444 226° Southwest 408 470 36,000  Level New York Center
Thu 08:10:02 PM 39.8706 -75.7531 229° Southwest 408 470 36,000  Level New York Center
Thu 08:11:02 PM 39.7922 -75.8800 231° Southwest 408 470 36,000  Level New York Center
Thu 08:12:37 PM 39.6856 -76.0419 229° Southwest 399 459 36,000  Level Washington Center
Thu 08:13:38 PM 39.6186 -76.1544 232° Southwest 399 459 36,000  Level Washington Center
Thu 08:14:36 PM 39.5472 -76.2617 229° Southwest 399 459 36,000  Level Washington Center
Thu 08:15:36 PM 39.4736 -76.3711 229° Southwest 399 459 36,000  Level Washington Center
Thu 08:16:37 PM 39.4061 -76.4833 232° Southwest 399 459 36,000  Level Washington Center
Thu 08:17:35 PM 39.3281 -76.5950 228° Southwest 404 465 36,000  Level Washington Center
Thu 08:18:35 PM 39.2583 -76.7039 230° Southwest 404 465 36,000  Level Washington Center
Thu 08:19:37 PM 39.1886 -76.8153 231° Southwest 404 465 36,000  Level Washington Center
Thu 08:20:35 PM 39.1164 -76.9267 230° Southwest 404 465 36,000  Level Washington Center
Thu 08:21:35 PM 39.0444 -77.0347 229° Southwest 404 465 36,000  Level Washington Center
Thu 08:22:35 PM 38.9597 -77.1292 221° Southwest 399 459 36,000  Level Washington Center
Thu 08:23:36 PM 38.8731 -77.2233 220° Southwest 399 459 36,000  Level Washington Center
Thu 08:24:37 PM 38.7883 -77.3175 221° Southwest 405 466 36,000  Level Washington Center
Thu 08:25:35 PM 38.7017 -77.4111 220° Southwest 410 472 36,000  Level Washington Center
Thu 08:26:37 PM 38.6061 -77.5125 220° Southwest 410 472 36,000  Level Washington Center
Thu 08:27:37 PM 38.5211 -77.6083 221° Southwest 410 472 36,000  Level Washington Center
Thu 08:28:37 PM 38.4383 -77.6989 221° Southwest 410 472 36,000  Level Washington Center
Thu 08:29:35 PM 38.3553 -77.7892 220° Southwest 410 472 36,000  Level Washington Center
Thu 08:30:36 PM 38.2703 -77.8819 221° Southwest 410 472 36,000  Level Washington Center
Thu 08:31:37 PM 38.1872 -77.9719 220° Southwest 410 472 36,000  Level Washington Center
Thu 08:32:35 PM 38.1042 -78.0617 220° Southwest 410 472 36,000  Level Washington Center
Thu 08:33:36 PM 38.0208 -78.1486 219° Southwest 405 466 36,000  Level Washington Center
Thu 08:34:37 PM 37.9583 -78.2386 229° Southwest 389 448 36,000  Level Washington Center
Thu 08:35:35 PM 37.8853 -78.3439 229° Southwest 395 455 36,000  Level Washington Center
Thu 08:36:36 PM 37.7953 -78.4483 223° Southwest 401 461 36,000  Level Washington Center
Thu 08:37:37 PM 37.7117 -78.5372 220° Southwest 401 461 36,000 -50 Level Washington Center
Thu 08:38:37 PM 37.6281 -78.6308 222° Southwest 401 461 35,900 -407 Descending Washington Center
Thu 08:39:35 PM 37.5400 -78.7217 219° Southwest 401 461 35,200 -706 Descending Washington Center
Thu 08:40:36 PM 37.4542 -78.8122 220° Southwest 401 461 34,500 -700 Descending Washington Center
Thu 08:41:35 PM 37.3747 -78.9006 221° Southwest 415 478 33,800 -700 Descending Washington Center
Thu 08:42:36 PM 37.2844 -78.9931 219° Southwest 415 478 33,100 -400 Descending Washington Center
Thu 08:43:35 PM 37.1942 -79.0881 220° Southwest 415 478 33,000 -50 Descending Washington Center
Thu 08:44:35 PM 37.1036 -79.1831 220° Southwest 421 484 33,000  Level Washington Center
Thu 08:45:36 PM 37.0153 -79.2778 221° Southwest 421 484 33,000 -595 Level Washington Center
Thu 08:46:36 PM 36.9161 -79.3822 220° Southwest 427 491 31,800 -992 Descending Washington Center
Thu 08:47:37 PM 36.8275 -79.4764 220° Southwest 427 491 31,000 -400 Descending Washington Center
Thu 08:48:36 PM 36.7389 -79.5678 220° Southwest 420 483 31,000 -403 Level Washington Center
Thu 08:49:36 PM 36.6481 -79.6642 220° Southwest 425 489 30,200 -1,907 Descending Washington Center
Thu 08:52:32 PM 36.3900 -79.9278 219° Southwest 426 490 23,500 -2,085 Descending Atlanta Center
Thu 08:53:32 PM 36.3011 -80.0197 220° Southwest 431 496 22,000 -1,200 Descending Atlanta Center
Thu 08:54:32 PM 36.2058 -80.0992 214° Southwest 431 496 21,100 -1,400 Descending Atlanta Center
Thu 08:55:32 PM 36.1122 -80.1783 214° Southwest 420 483 19,200 -2,050 Descending Atlanta Center
Thu 08:56:32 PM 36.0128 -80.2628 214° Southwest 414 476 17,000 -2,050 Descending Atlanta Center
Thu 08:57:32 PM 35.9233 -80.3386 214° Southwest 404 465 15,100 -1,831 Descending Atlanta Center
Thu 08:58:30 PM 35.8381 -80.4192 217° Southwest 379 436 13,400 -1,613 Descending Atlanta Center
Thu 08:59:31 PM 35.7628 -80.4814 214° Southwest 312 359 11,900 -1,241 Descending Atlanta Center
Thu 09:00:26 PM 35.6994 -80.5356 215° Southwest 288 331 11,000 -1,138 Descending Atlanta Center
Thu 09:01:27 PM 35.6300 -80.5844 210° Southwest 292 336 9,700 -1,238 Descending Atlanta Center
Thu 09:02:32 PM 35.5583 -80.6283 206° Southwest 293 337 8,400 -1,296 Descending Atlanta Center
Thu 09:03:32 PM 35.4886 -80.6744 208° Southwest 286 329 7,000 -1,250 Descending Atlanta Center
Thu 09:04:32 PM 35.4147 -80.7258 210° Southwest 286 329 5,900 -1,200 Descending Atlanta Center
Thu 09:05:32 PM 35.3553 -80.7639 208° Southwest 269 310 4,600 -1,250 Descending Atlanta Center
Thu 09:06:32 PM 35.3106 -80.8089 219° Southwest 231 266 3,400 -1,200 Descending Atlanta Center

Login

Don't have an account? Register now (free) for customized features, flight alerts, and more!